Terminal Aerodrome Forecast
Issued by NWS

Home | Current Version | Previous Version | Graphics & Text | Print | Product List | Glossary On
Versions: 1 2 3 4 5 6 7 8 9 10 11 12 13 14 15 16 17 18
768
FTUS43 KBIS 262114 AAB
TAFDIK
TAF AMD
KDIK 262114Z 2621/2718 06010KT P6SM BKN005 OVC012
      TEMPO 2621/2624 5SM -DZ BR OVC007
     FM270000 07009KT 3SM -RA BR OVC003
     FM270600 04008KT 2SM -RA OVC003=

USA.gov is the U.S. government's official web portal to all federal, state and local government web resources and services.